Time;durP1;ratioP1;P1;durP2;ratioP2;P2;SDS_P1;SDS_P2;PMS_P1;PMS_P2;Temp;Humidity;BMP_temperature;BMP_pressure;BME280_temperature;BME280_humidity;BME280_pressure;Samples;Min_cycle;Max_cycle;Signal;HPM_P1;HPM_P2
2020/12/09 00:01:27;;;;;;;37.33;16.40;;;1.90;99.90;;;;;;5015779;28;20597;-56
2020/12/09 00:04:13;;;;;;;35.33;16.60;;;1.80;99.90;;;;;;5015419;28;20033;-57
2020/12/09 00:07:00;;;;;;;41.78;16.17;;;1.90;99.90;;;;;;5033973;28;20038;-57
2020/12/09 00:09:46;;;;;;;39.30;15.70;;;2.00;99.90;;;;;;5034810;28;20036;-57
2020/12/09 00:12:33;;;;;;;37.97;14.52;;;2.00;99.90;;;;;;5019935;28;20041;-56
2020/12/09 00:15:19;;;;;;;37.38;16.48;;;2.00;99.90;;;;;;5034876;28;20060;-57
2020/12/09 00:18:05;;;;;;;34.17;15.30;;;2.00;99.90;;;;;;5035777;28;20029;-56
2020/12/09 00:20:51;;;;;;;37.47;16.92;;;2.00;99.90;;;;;;5033451;28;20038;-55
2020/12/09 00:23:37;;;;;;;35.25;15.02;;;2.00;99.90;;;;;;5036143;28;20037;-57
2020/12/09 00:26:26;;;;;;;35.85;15.82;;;2.00;99.90;;;;;;5034159;28;20049;-55
2020/12/09 00:29:15;;;;;;;45.72;16.45;;;1.90;99.90;;;;;;5035142;28;20401;-56
2020/12/09 00:32:02;;;;;;;38.60;16.90;;;1.70;99.90;;;;;;5035440;28;20115;-56
2020/12/09 00:34:48;;;;;;;39.20;16.63;;;1.60;99.90;;;;;;5019615;28;20042;-56
2020/12/09 00:37:35;;;;;;;40.42;15.93;;;1.60;99.90;;;;;;5033472;28;20050;-56
2020/12/09 00:40:21;;;;;;;48.53;19.15;;;1.60;99.90;;;;;;5035405;28;20132;-56
2020/12/09 00:43:07;;;;;;;42.80;18.92;;;1.50;99.90;;;;;;5034123;28;20037;-56
2020/12/09 00:45:53;;;;;;;46.97;18.55;;;1.50;99.90;;;;;;5033438;28;20041;-55
2020/12/09 00:48:39;;;;;;;41.22;18.98;;;1.50;99.90;;;;;;5034094;28;20501;-53
2020/12/09 00:51:26;;;;;;;38.03;16.90;;;1.50;99.90;;;;;;5034067;28;20505;-55
2020/12/09 00:54:12;;;;;;;42.80;19.15;;;1.50;99.90;;;;;;5034008;28;20044;-56
2020/12/09 00:56:58;;;;;;;38.25;17.00;;;1.50;99.90;;;;;;5033227;28;20044;-56
2020/12/09 00:59:44;;;;;;;48.08;19.05;;;1.40;99.90;;;;;;5033359;28;20383;-55
2020/12/09 01:02:30;;;;;;;44.35;17.95;;;1.40;99.90;;;;;;5034451;28;20367;-53
2020/12/09 01:05:16;;;;;;;47.10;19.13;;;1.40;99.90;;;;;;5033265;28;20056;-56
2020/12/09 01:08:02;;;;;;;47.88;20.27;;;1.40;99.90;;;;;;5033036;28;20033;-55
2020/12/09 01:10:49;;;;;;;46.70;19.77;;;1.40;99.90;;;;;;5033627;28;20446;-55
2020/12/09 01:13:35;;;;;;;47.22;20.23;;;1.40;99.90;;;;;;5033329;28;20406;-56
2020/12/09 01:16:21;;;;;;;47.13;20.17;;;1.40;99.90;;;;;;5032937;28;20402;-54
2020/12/09 01:19:07;;;;;;;54.22;20.58;;;1.40;99.90;;;;;;5032890;28;20037;-54
2020/12/09 01:21:54;;;;;;;44.55;18.30;;;1.30;99.90;;;;;;5032291;28;20061;-55
2020/12/09 01:24:40;;;;;;;44.58;20.25;;;1.30;99.90;;;;;;5032670;28;20044;-56
2020/12/09 01:27:26;;;;;;;45.72;20.25;;;1.30;99.90;;;;;;5033664;28;20175;-55
2020/12/09 01:30:12;;;;;;;46.50;19.70;;;1.30;99.90;;;;;;5033619;28;20044;-56
2020/12/09 01:32:58;;;;;;;52.72;20.70;;;1.30;99.90;;;;;;5032404;28;20037;-49
2020/12/09 01:35:44;;;;;;;49.38;20.65;;;1.30;99.90;;;;;;5033929;28;20141;-56
2020/12/09 01:38:30;;;;;;;47.63;19.73;;;1.30;99.90;;;;;;5032594;28;20061;-56
2020/12/09 01:41:18;;;;;;;48.40;20.33;;;1.30;99.90;;;;;;5032734;28;20025;-55
2020/12/09 01:44:05;;;;;;;50.97;20.77;;;1.40;99.90;;;;;;5033215;28;20029;-56
2020/12/09 01:46:53;;;;;;;53.17;21.30;;;1.40;99.90;;;;;;5032238;28;20095;-54
2020/12/09 01:49:39;;;;;;;52.83;21.30;;;1.40;99.90;;;;;;5017895;28;20120;-53
2020/12/09 01:52:27;;;;;;;47.47;20.73;;;1.40;99.90;;;;;;5032588;28;20026;-49
2020/12/09 01:55:13;;;;;;;54.97;22.73;;;1.50;99.90;;;;;;5032556;28;20128;-57
2020/12/09 01:57:59;;;;;;;45.00;19.67;;;1.50;99.90;;;;;;5032484;28;20037;-55
2020/12/09 02:00:45;;;;;;;49.83;21.30;;;1.60;99.90;;;;;;5033057;28;20123;-56
2020/12/09 02:03:31;;;;;;;44.20;19.83;;;1.60;99.90;;;;;;5032976;28;20406;-55
2020/12/09 02:06:19;;;;;;;45.67;20.15;;;1.60;99.90;;;;;;5016906;28;20103;-56
2020/12/09 02:09:05;;;;;;;50.05;21.05;;;1.60;99.90;;;;;;5032674;28;20044;-56
2020/12/09 02:11:53;;;;;;;47.78;21.25;;;1.70;99.90;;;;;;5032459;28;20049;-57
2020/12/09 02:14:39;;;;;;;44.92;20.55;;;1.50;99.90;;;;;;5031416;28;20483;-52
2020/12/09 02:17:25;;;;;;;54.60;21.40;;;1.50;99.90;;;;;;5031883;28;20038;-54
2020/12/09 02:20:11;;;;;;;44.80;19.25;;;1.60;99.90;;;;;;5032385;28;20052;-56
2020/12/09 02:22:57;;;;;;;43.67;21.45;;;1.40;99.90;;;;;;5031666;28;20116;-56
2020/12/09 02:25:45;;;;;;;49.95;20.88;;;1.50;99.90;;;;;;5031202;28;20043;-56
2020/12/09 02:28:31;;;;;;;49.42;21.27;;;1.40;99.90;;;;;;5031888;28;20475;-55
2020/12/09 02:31:17;;;;;;;50.05;21.05;;;1.40;99.90;;;;;;5032266;28;20398;-56
2020/12/09 02:34:04;;;;;;;50.35;20.42;;;1.40;99.90;;;;;;5031394;28;20033;-56
2020/12/09 02:36:50;;;;;;;49.55;20.48;;;1.40;99.90;;;;;;5031761;28;20106;-56
2020/12/09 02:39:37;;;;;;;59.58;21.20;;;1.40;99.90;;;;;;5031593;28;20096;-56
2020/12/09 02:42:23;;;;;;;51.75;20.38;;;1.40;99.90;;;;;;5031813;28;20049;-55
2020/12/09 02:45:10;;;;;;;49.75;21.85;;;1.40;99.90;;;;;;5031899;28;20029;-56
2020/12/09 02:47:56;;;;;;;51.80;21.08;;;1.50;99.90;;;;;;5031535;28;20068;-57
2020/12/09 02:50:42;;;;;;;51.90;21.70;;;1.50;99.90;;;;;;5017581;28;20033;-57
2020/12/09 02:53:28;;;;;;;53.63;22.27;;;1.50;99.90;;;;;;5032776;28;20556;-56
2020/12/09 02:56:17;;;;;;;56.90;21.67;;;1.40;99.90;;;;;;5031768;28;20433;-53
2020/12/09 02:59:03;;;;;;;47.00;21.60;;;1.40;99.90;;;;;;5032217;28;20103;-55
2020/12/09 03:01:49;;;;;;;48.20;21.13;;;1.40;99.90;;;;;;5031585;28;20443;-56
2020/12/09 03:04:35;;;;;;;49.38;19.83;;;1.40;99.90;;;;;;5030330;28;20368;-54
2020/12/09 03:07:21;;;;;;;47.90;21.33;;;1.40;99.90;;;;;;5030896;28;20486;-55
2020/12/09 03:10:07;;;;;;;48.15;21.88;;;1.40;99.90;;;;;;5030612;28;20037;-56
2020/12/09 03:12:53;;;;;;;54.33;22.23;;;1.30;99.90;;;;;;5031387;28;20037;-56
2020/12/09 03:15:39;;;;;;;51.58;22.50;;;1.30;99.90;;;;;;5030149;28;20030;-55
2020/12/09 03:18:25;;;;;;;53.13;20.50;;;1.40;99.90;;;;;;5031409;28;20069;-54
2020/12/09 03:21:11;;;;;;;44.67;19.83;;;1.50;99.90;;;;;;5031735;28;20048;-56
2020/12/09 03:23:57;;;;;;;44.85;19.45;;;1.70;99.90;;;;;;5031674;28;20072;-55
2020/12/09 03:26:43;;;;;;;42.05;19.02;;;1.70;99.90;;;;;;5032466;28;20107;-56
2020/12/09 03:29:29;;;;;;;42.25;19.88;;;1.70;99.90;;;;;;5030191;28;20397;-56
2020/12/09 03:32:15;;;;;;;42.00;18.17;;;1.70;99.90;;;;;;5031061;28;20044;-56
2020/12/09 03:35:02;;;;;;;43.95;18.67;;;1.60;99.90;;;;;;5030971;28;20065;-56
2020/12/09 03:37:48;;;;;;;45.38;18.88;;;1.60;99.90;;;;;;5030900;28;20128;-55
2020/12/09 03:40:34;;;;;;;38.72;18.27;;;1.50;99.90;;;;;;5029516;28;20107;-55
2020/12/09 03:43:20;;;;;;;40.80;18.75;;;1.40;99.90;;;;;;5031358;28;20041;-56
2020/12/09 03:46:06;;;;;;;42.30;19.60;;;1.40;99.90;;;;;;5030241;28;20490;-55
2020/12/09 03:48:52;;;;;;;44.75;19.92;;;1.50;99.90;;;;;;5031594;28;20398;-56
2020/12/09 03:51:38;;;;;;;47.72;21.13;;;1.40;99.90;;;;;;5031018;28;20041;-56
2020/12/09 03:54:24;;;;;;;45.58;18.67;;;1.50;99.90;;;;;;5032098;28;20175;-56
2020/12/09 03:57:10;;;;;;;48.65;20.58;;;1.50;99.90;;;;;;5031307;28;20048;-57
2020/12/09 03:59:56;;;;;;;50.42;20.83;;;1.60;99.90;;;;;;5032100;28;20030;-52
2020/12/09 04:02:43;;;;;;;46.88;20.25;;;1.60;99.90;;;;;;5030935;28;20478;-57
2020/12/09 04:05:29;;;;;;;49.33;20.60;;;1.60;99.90;;;;;;5031409;28;20022;-56
2020/12/09 04:08:15;;;;;;;47.17;20.50;;;1.60;99.90;;;;;;5029993;28;20037;-53
2020/12/09 04:11:01;;;;;;;47.08;20.33;;;1.50;99.90;;;;;;5030081;28;20475;-56
2020/12/09 04:13:47;;;;;;;43.45;18.63;;;1.60;99.90;;;;;;5030672;28;20513;-57
2020/12/09 04:16:33;;;;;;;46.13;19.25;;;1.60;99.90;;;;;;5030050;28;20402;-56
2020/12/09 04:19:19;;;;;;;39.50;18.13;;;1.60;99.90;;;;;;5030114;28;20040;-56
2020/12/09 04:22:05;;;;;;;46.45;18.52;;;1.70;99.90;;;;;;5030497;28;20509;-57
2020/12/09 04:24:51;;;;;;;43.40;18.67;;;1.80;99.90;;;;;;5031211;28;20030;-57
2020/12/09 04:27:37;;;;;;;40.92;18.30;;;1.90;99.90;;;;;;5031327;28;20505;-56
2020/12/09 04:30:23;;;;;;;44.40;19.27;;;1.80;99.90;;;;;;5030040;28;20044;-56
2020/12/09 04:33:09;;;;;;;47.20;19.30;;;1.80;99.90;;;;;;5030486;28;20124;-56
2020/12/09 04:35:57;;;;;;;44.45;18.52;;;1.80;99.90;;;;;;5030020;28;20029;-57
2020/12/09 04:38:43;;;;;;;42.85;19.60;;;1.90;99.90;;;;;;5031479;28;20491;-57
2020/12/09 04:41:29;;;;;;;40.75;19.48;;;1.90;99.90;;;;;;5030202;28;20113;-58
2020/12/09 04:44:15;;;;;;;45.22;20.90;;;2.00;99.90;;;;;;5029455;28;20041;-58
2020/12/09 04:47:04;;;;;;;43.90;19.52;;;1.90;99.90;;;;;;5030896;28;20482;-56
2020/12/09 04:50:12;;;;;;;43.53;19.92;;;2.10;99.90;;;;;;5029995;28;20041;-57
2020/12/09 04:53:11;;;;;;;48.30;20.40;;;1.90;99.90;;;;;;5032606;28;20044;-57
2020/12/09 04:55:59;;;;;;;47.33;21.55;;;1.80;99.90;;;;;;5031926;28;20048;-55
2020/12/09 04:58:54;;;;;;;53.60;21.23;;;1.90;99.90;;;;;;5033958;28;20037;-57
2020/12/09 05:02:03;;;;;;;45.47;19.17;;;1.90;99.90;;;;;;5033962;28;20038;-52
2020/12/09 05:04:50;;;;;;;48.15;19.25;;;1.90;99.90;;;;;;5035051;28;20076;-54
2020/12/09 05:07:37;;;;;;;54.05;20.80;;;1.90;99.90;;;;;;5033671;28;20044;-57
2020/12/09 05:10:24;;;;;;;41.85;18.67;;;2.00;99.90;;;;;;5034761;28;20049;-58
2020/12/09 05:13:19;;;;;;;49.05;21.55;;;1.90;99.90;;;;;;5033627;28;20490;-57
2020/12/09 05:16:07;;;;;;;48.60;19.88;;;2.00;99.90;;;;;;5021019;28;20092;-58
2020/12/09 05:19:02;;;;;;;40.30;18.85;;;1.90;99.90;;;;;;5018733;28;20038;-57
2020/12/09 05:21:50;;;;;;;47.33;19.85;;;1.90;99.90;;;;;;5032376;28;20362;-57
2020/12/09 05:24:36;;;;;;;43.05;18.50;;;2.00;99.90;;;;;;5017824;28;20128;-57
2020/12/09 05:27:22;;;;;;;42.22;19.40;;;2.00;99.90;;;;;;5032368;28;20466;-57
2020/12/09 05:30:08;;;;;;;40.50;18.63;;;2.00;99.90;;;;;;5032320;28;20033;-57
2020/12/09 05:32:54;;;;;;;45.65;19.10;;;2.00;99.90;;;;;;5033594;28;20040;-57
2020/12/09 05:35:41;;;;;;;47.53;20.67;;;2.00;99.90;;;;;;5033386;28;20075;-57
2020/12/09 05:38:29;;;;;;;52.95;20.25;;;2.20;99.90;;;;;;5032610;28;20093;-58
2020/12/09 05:41:15;;;;;;;52.50;20.83;;;2.70;99.90;;;;;;5033187;28;20467;-56
2020/12/09 05:44:03;;;;;;;53.03;21.00;;;2.70;99.90;;;;;;5032253;28;20257;-55
2020/12/09 05:47:01;;;;;;;44.50;20.55;;;2.20;99.90;;;;;;5031302;28;20440;-56
2020/12/09 05:49:49;;;;;;;44.65;19.67;;;1.90;99.90;;;;;;5032087;28;20037;-57
2020/12/09 05:52:39;;;;;;;50.20;19.98;;;1.80;99.90;;;;;;5019142;28;20041;-56
2020/12/09 05:55:24;;;;;;;50.92;21.45;;;1.80;99.90;;;;;;5032235;28;20089;-56
2020/12/09 05:58:26;;;;;;;43.78;20.33;;;1.80;99.90;;;;;;5032099;28;20128;-56
2020/12/09 06:01:26;;;;;;;48.08;20.30;;;1.80;99.90;;;;;;5030919;28;20085;-56
2020/12/09 06:04:12;;;;;;;49.78;20.77;;;1.90;99.90;;;;;;5018938;28;20048;-55
2020/12/09 06:07:00;;;;;;;53.33;21.73;;;1.80;99.90;;;;;;5031599;28;20120;-56
2020/12/09 06:10:08;;;;;;;55.00;20.63;;;1.80;99.90;;;;;;5017965;28;20048;-55
2020/12/09 06:12:59;;;;;;;45.42;20.02;;;1.80;99.90;;;;;;5032727;28;20045;-56
2020/12/09 06:15:45;;;;;;;48.15;21.73;;;1.80;99.90;;;;;;5031807;28;20043;-56
2020/12/09 06:18:33;;;;;;;49.03;20.70;;;1.90;99.90;;;;;;5018092;28;20049;-56
2020/12/09 06:21:24;;;;;;;52.30;21.73;;;2.00;99.90;;;;;;5032785;28;20041;-57
2020/12/09 06:24:10;;;;;;;46.25;21.25;;;1.90;99.90;;;;;;5031816;28;20486;-57
2020/12/09 06:26:56;;;;;;;44.00;20.77;;;1.90;99.90;;;;;;5018729;28;20030;-55
2020/12/09 06:29:45;;;;;;;47.25;21.17;;;1.90;99.90;;;;;;5032815;28;20486;-56
2020/12/09 06:32:47;;;;;;;50.55;21.48;;;1.90;99.90;;;;;;5031421;28;20049;-55
2020/12/09 06:35:33;;;;;;;49.20;20.42;;;2.00;99.90;;;;;;5031096;28;20038;-56
2020/12/09 06:38:20;;;;;;;46.40;19.90;;;2.00;99.90;;;;;;5031936;28;20089;-56
2020/12/09 06:41:06;;;;;;;54.50;22.35;;;2.00;99.90;;;;;;5031808;28;20056;-55
2020/12/09 06:44:11;;;;;;;51.22;21.77;;;2.00;99.90;;;;;;5031448;28;20041;-55
2020/12/09 06:47:00;;;;;;;47.55;21.08;;;2.00;99.90;;;;;;5031857;28;20057;-55
2020/12/09 06:49:46;;;;;;;52.17;21.35;;;2.10;99.90;;;;;;5032781;28;20033;-56
2020/12/09 06:52:35;;;;;;;50.10;20.67;;;2.10;99.90;;;;;;5031057;28;20056;-55
2020/12/09 06:55:21;;;;;;;52.83;23.65;;;2.10;99.90;;;;;;5030420;28;20034;-53
2020/12/09 06:58:30;;;;;;;47.28;21.70;;;2.00;99.90;;;;;;5031063;28;20038;-55
2020/12/09 07:01:16;;;;;;;53.83;22.20;;;2.00;99.90;;;;;;5031204;28;20103;-58
2020/12/09 07:04:02;;;;;;;54.22;22.27;;;2.00;99.90;;;;;;5030826;28;20037;-58
2020/12/09 07:06:48;;;;;;;52.55;21.85;;;2.00;99.90;;;;;;5031565;28;20057;-58
2020/12/09 07:09:34;;;;;;;52.33;21.65;;;2.10;99.90;;;;;;5030910;28;20025;-58
2020/12/09 07:12:21;;;;;;;53.15;21.75;;;2.10;99.90;;;;;;5031262;28;20041;-56
2020/12/09 07:15:07;;;;;;;58.58;22.35;;;2.10;99.90;;;;;;5032087;28;20129;-58
2020/12/09 07:17:54;;;;;;;61.03;25.45;;;2.20;99.90;;;;;;5031786;28;20466;-58
2020/12/09 07:20:41;;;;;;;61.17;25.23;;;2.20;99.90;;;;;;5019427;28;20041;-58
2020/12/09 07:23:27;;;;;;;50.80;21.67;;;2.30;99.90;;;;;;5031155;28;20048;-58
2020/12/09 07:26:13;;;;;;;47.85;19.70;;;2.40;99.90;;;;;;5031697;28;20032;-59
2020/12/09 07:28:59;;;;;;;44.88;19.83;;;2.40;99.90;;;;;;5031121;28;20036;-57
2020/12/09 07:31:48;;;;;;;44.50;19.33;;;2.30;99.90;;;;;;5030382;28;20095;-58
2020/12/09 07:34:58;;;;;;;48.13;20.95;;;2.30;99.90;;;;;;5031352;28;20037;-56
2020/12/09 07:37:50;;;;;;;45.63;19.05;;;2.30;99.90;;;;;;5031199;28;20065;-58
2020/12/09 07:40:36;;;;;;;45.25;19.92;;;2.20;99.90;;;;;;5029849;28;20478;-54
2020/12/09 07:43:22;;;;;;;43.90;19.60;;;2.30;99.90;;;;;;5030819;28;20080;-56
2020/12/09 07:46:08;;;;;;;54.03;22.77;;;2.30;99.90;;;;;;5031067;28;20037;-57
2020/12/09 07:48:54;;;;;;;52.30;22.20;;;2.20;99.90;;;;;;5031630;28;20036;-57
2020/12/09 07:51:40;;;;;;;48.55;19.98;;;2.20;99.90;;;;;;5031985;28;20033;-56
2020/12/09 07:54:27;;;;;;;49.75;20.65;;;2.20;99.90;;;;;;5024047;28;20040;-56
2020/12/09 07:57:13;;;;;;;49.72;21.77;;;2.20;99.90;;;;;;5015791;28;20107;-57
2020/12/09 08:00:00;;;;;;;46.75;20.35;;;2.30;99.90;;;;;;5030295;28;20113;-56
2020/12/09 08:02:47;;;;;;;51.60;20.52;;;2.30;99.90;;;;;;5029644;28;20580;-57
2020/12/09 08:05:37;;;;;;;52.90;22.08;;;2.30;99.90;;;;;;5017027;28;20121;-57
2020/12/09 08:08:26;;;;;;;48.10;21.30;;;2.30;99.90;;;;;;5030162;28;20033;-57
2020/12/09 08:11:12;;;;;;;45.42;20.42;;;2.40;99.90;;;;;;5031980;28;20482;-56
2020/12/09 08:14:01;;;;;;;47.65;21.30;;;2.50;99.90;;;;;;5030640;28;20036;-57
2020/12/09 08:16:47;;;;;;;48.53;21.08;;;2.50;99.90;;;;;;5031123;28;20033;-56
2020/12/09 08:19:33;;;;;;;47.88;19.52;;;2.60;99.90;;;;;;5031019;28;20041;-57
2020/12/09 08:22:19;;;;;;;46.47;19.85;;;2.60;99.90;;;;;;4997772;28;20049;-57
2020/12/09 08:25:08;;;;;;;49.17;21.08;;;2.60;99.90;;;;;;5011373;28;20033;-57
2020/12/09 08:28:06;;;;;;;43.25;20.02;;;2.50;99.90;;;;;;5013763;28;20376;-57
2020/12/09 08:30:54;;;;;;;51.53;21.63;;;2.50;99.90;;;;;;5000328;28;20372;-57
2020/12/09 08:33:40;;;;;;;43.58;20.73;;;2.40;99.90;;;;;;5015350;28;20116;-57
2020/12/09 08:36:26;;;;;;;43.28;19.58;;;2.50;99.90;;;;;;5015023;28;20045;-56
2020/12/09 08:39:12;;;;;;;45.60;20.73;;;2.50;99.90;;;;;;5015704;28;20092;-58
2020/12/09 08:41:58;;;;;;;43.22;19.88;;;2.60;99.90;;;;;;5014664;28;20057;-58
2020/12/09 08:44:44;;;;;;;38.72;19.85;;;2.60;99.90;;;;;;5015053;28;20030;-57
2020/12/09 08:47:30;;;;;;;47.97;19.70;;;2.60;99.90;;;;;;5014366;28;20048;-57
2020/12/09 08:50:17;;;;;;;43.47;19.45;;;2.60;99.90;;;;;;5020052;28;20033;-57
2020/12/09 08:53:03;;;;;;;55.13;23.40;;;2.60;99.90;;;;;;5034358;28;20045;-58
2020/12/09 08:55:49;;;;;;;62.45;28.77;;;2.70;99.90;;;;;;5033717;28;20045;-58
2020/12/09 08:58:35;;;;;;;56.78;29.00;;;2.90;99.90;;;;;;5034230;28;20042;-56
2020/12/09 09:01:22;;;;;;;56.08;27.20;;;3.00;99.90;;;;;;5033454;28;20029;-57
2020/12/09 09:04:09;;;;;;;52.33;25.08;;;3.10;99.90;;;;;;5033517;28;20100;-57
2020/12/09 09:06:55;;;;;;;48.88;20.42;;;3.30;99.90;;;;;;5034365;28;20437;-57
2020/12/09 09:09:42;;;;;;;50.40;21.00;;;3.30;99.90;;;;;;5034727;28;20046;-57
2020/12/09 09:12:28;;;;;;;47.58;21.17;;;3.20;99.90;;;;;;5033533;28;20025;-58
2020/12/09 09:15:14;;;;;;;47.58;21.80;;;3.30;99.90;;;;;;5033127;28;20142;-57
2020/12/09 09:18:02;;;;;;;43.60;19.33;;;3.20;99.90;;;;;;5033017;28;20045;-58
2020/12/09 09:20:50;;;;;;;38.80;18.95;;;3.30;99.90;;;;;;5033924;28;20080;-57
2020/12/09 09:23:37;;;;;;;44.20;19.75;;;3.50;99.90;;;;;;5033697;28;20041;-57
2020/12/09 09:26:23;;;;;;;52.60;25.83;;;3.50;99.90;;;;;;5033957;28;20065;-55
2020/12/09 09:29:09;;;;;;;44.58;19.83;;;3.70;99.90;;;;;;5033463;28;20037;-58
2020/12/09 09:31:55;;;;;;;35.70;17.13;;;3.60;99.90;;;;;;5033432;28;20033;-58
2020/12/09 09:34:41;;;;;;;44.33;17.88;;;3.60;99.90;;;;;;5033318;28;20146;-56
2020/12/09 09:37:27;;;;;;;34.92;17.50;;;3.60;99.90;;;;;;5032599;28;20057;-56
2020/12/09 09:40:13;;;;;;;39.17;17.30;;;3.80;99.90;;;;;;5034404;28;20533;-58
2020/12/09 09:42:59;;;;;;;33.65;16.40;;;3.90;99.90;;;;;;5032478;28;20033;-58
2020/12/09 09:45:45;;;;;;;35.88;16.40;;;4.00;99.90;;;;;;5033076;28;20155;-56
2020/12/09 09:48:31;;;;;;;35.75;15.68;;;4.30;99.90;;;;;;5034402;28;20045;-56
2020/12/09 09:51:17;;;;;;;40.30;17.15;;;4.30;99.90;;;;;;5032830;28;20034;-57
2020/12/09 09:54:03;;;;;;;33.67;14.93;;;4.40;99.90;;;;;;5032773;28;20048;-57
2020/12/09 09:56:49;;;;;;;34.35;15.65;;;4.40;99.90;;;;;;5032299;28;20041;-58
2020/12/09 09:59:35;;;;;;;37.75;17.90;;;4.50;99.90;;;;;;5033608;28;20131;-55
2020/12/09 10:02:22;;;;;;;30.38;14.50;;;4.40;99.90;;;;;;5032437;28;20124;-57
2020/12/09 10:05:08;;;;;;;34.58;15.48;;;4.50;99.90;;;;;;5032315;28;20037;-58
2020/12/09 10:07:54;;;;;;;32.72;15.18;;;4.50;99.90;;;;;;5032250;28;20045;-56
2020/12/09 10:10:40;;;;;;;32.55;14.77;;;4.60;99.90;;;;;;5032925;28;20044;-57
2020/12/09 10:13:26;;;;;;;38.25;14.70;;;4.60;99.90;;;;;;5033224;28;20064;-57
2020/12/09 10:16:12;;;;;;;33.30;15.25;;;4.70;99.90;;;;;;5032689;28;20120;-57
2020/12/09 10:19:01;;;;;;;31.33;14.65;;;4.80;99.90;;;;;;5032473;28;20045;-57
2020/12/09 10:21:47;;;;;;;33.60;14.68;;;4.80;99.90;;;;;;5031736;28;20099;-57
2020/12/09 10:24:33;;;;;;;34.67;15.32;;;4.80;99.90;;;;;;5032206;28;20037;-56
2020/12/09 10:27:20;;;;;;;30.40;14.70;;;4.90;99.90;;;;;;5033554;28;20037;-56
2020/12/09 10:30:07;;;;;;;35.53;14.98;;;4.80;99.90;;;;;;5016952;28;20387;-56
2020/12/09 10:32:53;;;;;;;34.75;15.65;;;4.70;99.90;;;;;;5032361;28;20486;-58
2020/12/09 10:35:43;;;;;;;32.63;14.55;;;4.70;99.90;;;;;;5032783;28;20394;-56
2020/12/09 10:38:29;;;;;;;36.67;17.15;;;4.70;99.90;;;;;;5032512;28;20044;-57
2020/12/09 10:41:15;;;;;;;34.92;14.77;;;4.70;99.90;;;;;;5032717;28;20073;-54
2020/12/09 10:44:03;;;;;;;32.78;16.42;;;4.70;99.90;;;;;;5033198;28;20030;-53
2020/12/09 10:46:49;;;;;;;33.67;16.15;;;4.60;99.90;;;;;;5033269;28;20037;-57
2020/12/09 10:49:35;;;;;;;30.10;14.07;;;4.60;99.90;;;;;;5030929;28;20069;-58
2020/12/09 10:52:21;;;;;;;35.28;17.20;;;4.60;99.90;;;;;;5013258;28;20128;-57
2020/12/09 10:55:07;;;;;;;34.63;14.90;;;4.70;99.90;;;;;;4997687;28;20030;-58
2020/12/09 10:57:54;;;;;;;31.05;13.77;;;4.70;99.90;;;;;;5012089;28;20048;-58
2020/12/09 11:00:40;;;;;;;32.25;14.88;;;4.80;99.90;;;;;;5022387;28;20033;-57
2020/12/09 11:03:26;;;;;;;36.38;15.18;;;4.90;99.90;;;;;;5032622;28;20088;-56
2020/12/09 11:06:12;;;;;;;31.33;14.50;;;5.00;99.90;;;;;;5032204;28;20076;-58
2020/12/09 11:09:05;;;;;;;39.03;15.27;;;5.00;99.90;;;;;;5030825;28;20420;-58
2020/12/09 11:11:53;;;;;;;28.20;13.45;;;4.90;99.90;;;;;;5032619;28;20045;-58
2020/12/09 11:14:39;;;;;;;39.72;15.10;;;4.80;99.90;;;;;;5030737;28;20104;-57
2020/12/09 11:17:25;;;;;;;36.58;14.63;;;4.90;99.90;;;;;;5031261;28;20155;-58
2020/12/09 11:20:12;;;;;;;29.80;13.80;;;5.10;99.90;;;;;;5032539;28;20180;-58
2020/12/09 11:22:58;;;;;;;35.22;16.23;;;5.10;99.90;;;;;;5031269;28;20041;-57
2020/12/09 11:25:44;;;;;;;31.23;15.05;;;5.40;99.90;;;;;;5031159;28;20025;-58
2020/12/09 11:28:30;;;;;;;35.60;14.63;;;5.40;99.90;;;;;;5033030;28;20064;-58
2020/12/09 11:31:24;;;;;;;29.35;13.73;;;5.00;99.90;;;;;;5030686;28;20029;-56
2020/12/09 11:34:10;;;;;;;32.60;15.02;;;5.10;99.90;;;;;;5031168;28;20467;-57
2020/12/09 11:37:00;;;;;;;29.17;13.80;;;5.00;99.90;;;;;;5030251;28;20050;-57
2020/12/09 11:39:46;;;;;;;30.77;14.20;;;5.00;99.90;;;;;;5030787;28;20096;-57
2020/12/09 11:42:37;;;;;;;29.23;14.05;;;5.10;99.90;;;;;;5030085;28;20084;-58
2020/12/09 11:45:23;;;;;;;36.70;14.20;;;4.90;99.90;;;;;;5025421;28;20055;-58
2020/12/09 11:48:09;;;;;;;31.52;14.77;;;5.00;99.90;;;;;;5031485;28;20025;-57
2020/12/09 11:50:55;;;;;;;29.98;13.55;;;5.20;99.90;;;;;;5030410;28;20402;-57
2020/12/09 11:53:42;;;;;;;31.23;12.70;;;5.10;99.90;;;;;;5030219;28;20477;-57
2020/12/09 11:56:28;;;;;;;31.23;13.05;;;5.30;99.90;;;;;;5031275;28;20574;-56
2020/12/09 11:59:14;;;;;;;29.33;13.07;;;5.20;99.90;;;;;;5030722;28;20413;-54
2020/12/09 12:02:00;;;;;;;28.73;11.77;;;5.30;99.90;;;;;;5030471;28;20410;-55
2020/12/09 12:04:49;;;;;;;27.35;12.77;;;5.40;99.90;;;;;;5030382;28;20034;-52
2020/12/09 12:07:37;;;;;;;31.65;13.07;;;5.50;99.90;;;;;;5016450;28;20041;-57
2020/12/09 12:10:23;;;;;;;25.88;11.23;;;5.30;99.90;;;;;;5029895;28;20036;-52
2020/12/09 12:13:09;;;;;;;31.65;13.75;;;5.30;99.90;;;;;;5030693;28;20406;-54
2020/12/09 12:15:55;;;;;;;31.38;14.43;;;5.30;99.90;;;;;;5030035;28;20041;-56
2020/12/09 12:18:41;;;;;;;27.27;12.20;;;5.40;99.90;;;;;;5030622;28;20037;-57
2020/12/09 12:21:27;;;;;;;24.08;12.02;;;5.50;99.90;;;;;;5031045;28;20403;-57
2020/12/09 12:24:13;;;;;;;23.88;11.35;;;5.50;99.90;;;;;;5030610;28;20037;-57
2020/12/09 12:27:00;;;;;;;26.17;11.68;;;5.40;99.90;;;;;;5030052;28;20092;-58
2020/12/09 12:29:46;;;;;;;23.08;11.23;;;5.40;99.90;;;;;;5031125;28;20049;-55
2020/12/09 12:32:32;;;;;;;23.80;10.70;;;5.30;99.90;;;;;;5031662;28;20084;-57
2020/12/09 12:35:18;;;;;;;24.92;10.73;;;5.30;99.90;;;;;;5030090;28;20474;-55
2020/12/09 12:38:04;;;;;;;25.42;10.45;;;5.30;99.90;;;;;;5029580;28;20050;-57
2020/12/09 12:40:50;;;;;;;28.00;11.02;;;5.20;99.90;;;;;;5029293;28;20032;-57
2020/12/09 12:43:37;;;;;;;22.20;10.50;;;5.20;99.90;;;;;;5029846;28;20041;-56
2020/12/09 12:46:23;;;;;;;25.95;11.05;;;5.20;99.90;;;;;;5030566;28;20049;-56
2020/12/09 12:49:09;;;;;;;22.33;10.00;;;5.20;99.90;;;;;;5030445;28;20092;-57
2020/12/09 12:51:57;;;;;;;27.52;11.63;;;5.20;99.90;;;;;;5029659;28;20104;-56
2020/12/09 12:54:44;;;;;;;24.92;10.73;;;5.20;99.90;;;;;;5030340;28;20397;-57
2020/12/09 12:57:29;;;;;;;21.30;9.43;;;5.10;99.90;;;;;;5029917;28;20033;-57
2020/12/09 13:00:15;;;;;;;28.30;10.80;;;5.10;99.90;;;;;;5031316;28;20025;-55
2020/12/09 13:03:02;;;;;;;21.95;9.98;;;5.20;99.90;;;;;;5030699;28;20124;-57
2020/12/09 13:05:48;;;;;;;24.45;10.38;;;5.10;99.90;;;;;;5030917;28;20084;-57
2020/12/09 13:08:34;;;;;;;21.30;10.10;;;5.10;99.90;;;;;;5030657;28;20406;-57
2020/12/09 13:11:20;;;;;;;22.70;9.95;;;5.00;99.90;;;;;;5030499;28;20026;-57
2020/12/09 13:14:06;;;;;;;20.85;9.77;;;5.00;99.90;;;;;;5033041;28;20470;-57
2020/12/09 13:16:53;;;;;;;24.45;10.40;;;5.10;99.90;;;;;;5033869;28;20044;-57
2020/12/09 13:19:39;;;;;;;22.02;10.02;;;5.10;99.90;;;;;;5035610;28;20089;-57
2020/12/09 13:22:27;;;;;;;21.65;9.93;;;5.10;99.90;;;;;;5035113;28;20124;-57
2020/12/09 13:25:13;;;;;;;21.00;9.75;;;5.10;99.90;;;;;;5018823;28;20041;-57
2020/12/09 13:27:59;;;;;;;23.27;9.63;;;5.10;99.90;;;;;;5033048;28;20631;-56
2020/12/09 13:30:45;;;;;;;21.70;9.77;;;5.10;99.90;;;;;;5033753;28;20451;-57
2020/12/09 13:33:31;;;;;;;22.20;9.88;;;5.00;99.90;;;;;;5032672;28;20160;-57
2020/12/09 13:36:22;;;;;;;23.85;11.20;;;5.00;99.90;;;;;;5033440;28;20048;-57
2020/12/09 13:39:08;;;;;;;22.10;9.32;;;5.00;99.90;;;;;;5019141;28;20045;-58
2020/12/09 13:41:54;;;;;;;24.65;10.50;;;5.00;99.90;;;;;;5033562;28;20033;-56
2020/12/09 13:44:40;;;;;;;22.95;9.23;;;5.00;99.90;;;;;;5031809;28;20076;-56
2020/12/09 13:47:26;;;;;;;20.90;8.85;;;5.00;99.90;;;;;;5034823;28;20040;-57
2020/12/09 13:50:12;;;;;;;22.60;9.63;;;5.00;99.90;;;;;;5033454;28;20112;-57
2020/12/09 13:52:58;;;;;;;22.48;8.98;;;4.90;99.90;;;;;;5031765;28;20398;-57
2020/12/09 13:55:44;;;;;;;24.92;10.02;;;4.90;99.90;;;;;;5032343;28;20171;-56
2020/12/09 13:58:30;;;;;;;22.45;10.15;;;4.90;99.90;;;;;;5032436;28;20022;-55
2020/12/09 14:01:17;;;;;;;19.58;9.00;;;4.90;99.90;;;;;;5025038;28;20037;-53
2020/12/09 14:04:03;;;;;;;24.55;9.98;;;5.00;99.90;;;;;;5034489;28;20100;-56
2020/12/09 14:06:49;;;;;;;24.52;9.43;;;4.90;99.90;;;;;;5033095;28;20483;-54
2020/12/09 14:09:35;;;;;;;19.25;9.85;;;5.00;99.90;;;;;;5032692;28;20038;-56
2020/12/09 14:12:21;;;;;;;20.52;9.63;;;5.00;99.90;;;;;;5033808;28;20628;-55
2020/12/09 14:15:07;;;;;;;24.38;9.77;;;4.80;99.90;;;;;;5032634;28;20042;-57
2020/12/09 14:17:53;;;;;;;18.92;8.23;;;4.90;99.90;;;;;;5032969;28;20045;-57
2020/12/09 14:20:39;;;;;;;23.58;10.05;;;4.90;99.90;;;;;;5032894;28;20033;-54